Time;durP1;ratioP1;P1;durP2;ratioP2;P2;SDS_P1;SDS_P2;PMS_P1;PMS_P2;Temp;Humidity;BMP_temperature;BMP_pressure;BME280_temperature;BME280_humidity;BME280_pressure;Samples;Min_cycle;Max_cycle;Signal;HPM_P1;HPM_P2
2022/11/04 00:00:44;;;;;;;6.00;2.63;;;;;;;9.85;92.28;100126.25;5063567;28;20029;-80
2022/11/04 00:03:09;;;;;;;4.18;2.25;;;;;;;9.81;91.54;100127.03;5063374;28;20149;-81
2022/11/04 00:05:35;;;;;;;4.65;2.10;;;;;;;9.82;91.19;100125.31;5064051;28;20025;-81
2022/11/04 00:13:29;;;;;;;4.55;1.90;;;;;;;9.81;91.04;100118.38;5063626;28;20032;-73
2022/11/04 00:18:38;;;;;;;3.97;1.88;;;;;;;9.85;91.13;100134.03;5063740;28;20040;-73
2022/11/04 00:29:14;;;;;;;4.97;2.53;;;;;;;9.78;92.92;100142.63;5062844;28;20080;-73
2022/11/04 00:34:23;;;;;;;10.23;5.07;;;;;;;9.77;93.94;100146.06;5062551;28;20136;-73
2022/11/04 00:36:49;;;;;;;12.40;7.28;;;;;;;9.76;94.92;100154.69;5063984;28;20025;-81
2022/11/04 00:39:14;;;;;;;12.07;7.82;;;;;;;9.79;95.65;100148.69;5062037;28;20163;-82
2022/11/04 00:41:39;;;;;;;13.10;8.23;;;;;;;9.78;95.78;100142.63;5063279;28;20028;-81
2022/11/04 00:44:05;;;;;;;12.23;8.18;;;;;;;9.78;95.82;100142.63;5061426;28;20213;-82
2022/11/04 00:46:32;;;;;;;12.82;8.25;;;;;;;9.76;95.83;100154.69;5063175;28;20235;-79
2022/11/04 00:48:58;;;;;;;13.00;8.43;;;;;;;9.77;95.72;100151.25;5061257;28;20026;-81
2022/11/04 00:51:24;;;;;;;13.13;8.35;;;;;;;9.77;95.92;100166.88;5062686;28;20040;-81
2022/11/04 00:53:50;;;;;;;13.82;8.32;;;;;;;9.74;96.14;100167.69;5077122;28;20021;-81
2022/11/04 00:56:15;;;;;;;14.52;9.10;;;;;;;9.74;96.14;100159.03;5062527;28;20060;-82
2022/11/04 00:58:41;;;;;;;12.73;8.48;;;;;;;9.76;95.86;100170.31;5062477;28;20032;-82
2022/11/04 01:01:12;;;;;;;15.68;8.65;;;;;;;9.76;96.15;100172.91;5062856;28;20060;-81
2022/11/04 01:03:38;;;;;;;14.48;8.50;;;;;;;9.76;96.37;100180.72;5062651;28;20052;-81
2022/11/04 01:06:03;;;;;;;14.90;8.27;;;;;;;9.76;96.08;100175.50;5063243;28;20029;-82
2022/11/04 01:08:29;;;;;;;15.25;8.48;;;;;;;9.75;96.14;100181.59;5062493;28;20025;-73
2022/11/04 01:10:54;;;;;;;15.10;9.15;;;;;;;9.72;96.45;100178.94;5062603;28;20032;-73
2022/11/04 01:13:20;;;;;;;14.95;8.88;;;;;;;9.71;96.45;100182.38;5062777;28;20199;-73
2022/11/04 01:15:45;;;;;;;15.68;9.45;;;;;;;9.69;96.08;100179.75;5061929;28;20338;-73
2022/11/04 01:18:11;;;;;;;14.00;8.82;;;;;;;9.66;95.87;100187.53;5062991;28;20052;-73
2022/11/04 01:20:36;;;;;;;18.10;9.30;;;;;;;9.64;95.85;100188.34;5062359;28;20076;-73
2022/11/04 01:23:01;;;;;;;12.88;8.82;;;;;;;9.63;95.74;100203.09;5061406;28;20033;-74
2022/11/04 01:25:27;;;;;;;14.60;8.75;;;;;;;9.61;95.71;100194.34;5061982;28;20044;-73
2022/11/04 01:27:52;;;;;;;15.27;8.70;;;;;;;9.58;95.65;100199.50;5061769;28;20036;-74
2022/11/04 01:30:17;;;;;;;15.85;8.50;;;;;;;9.53;96.04;100202.03;5062206;28;20088;-74
2022/11/04 01:32:42;;;;;;;14.10;8.25;;;;;;;9.51;96.17;100195.91;5062281;28;20025;-73
2022/11/04 01:35:08;;;;;;;15.13;8.05;;;;;;;9.53;96.34;100198.53;5062094;28;20049;-73
2022/11/04 01:37:34;;;;;;;14.90;8.48;;;;;;;9.54;96.13;100193.41;5062315;28;20354;-73
2022/11/04 01:39:59;;;;;;;16.45;8.40;;;;;;;9.56;96.06;100190.81;5062118;28;20088;-74
2022/11/04 01:42:24;;;;;;;16.38;8.23;;;;;;;9.53;95.87;100185.53;5062053;28;20056;-73
2022/11/04 01:44:58;;;;;;;15.63;8.48;;;;;;;9.52;95.88;100199.41;5061600;28;20035;-73
2022/11/04 01:47:40;;;;;;;14.77;7.88;;;;;;;9.48;95.65;100201.06;5062963;28;20021;-73
2022/11/04 01:50:21;;;;;;;14.30;6.70;;;;;;;9.45;95.61;100195.81;5062099;28;20021;-73
2022/11/04 01:52:55;;;;;;;15.10;7.50;;;;;;;9.43;95.65;100196.63;5076875;28;20020;-73
2022/11/04 01:55:32;;;;;;;13.20;7.70;;;;;;;9.42;95.83;100197.50;5060754;28;20029;-73
2022/11/04 01:58:01;;;;;;;12.70;6.47;;;;;;;9.38;95.74;100189.66;5061717;28;20021;-73
2022/11/04 02:00:27;;;;;;;10.35;6.05;;;;;;;9.35;95.62;100193.91;5062017;28;20025;-73
2022/11/04 02:03:11;;;;;;;11.55;6.35;;;;;;;9.33;95.48;100193.00;5061768;28;20185;-73
2022/11/04 02:05:37;;;;;;;11.10;5.78;;;;;;;9.32;95.67;100205.13;5061908;28;20033;-73
2022/11/04 02:08:05;;;;;;;11.88;6.00;;;;;;;9.28;95.41;100192.03;5062303;28;20307;-81
2022/11/04 02:10:31;;;;;;;10.23;5.47;;;;;;;9.23;95.46;100199.75;5092105;28;20017;-81
2022/11/04 02:13:00;;;;;;;12.05;5.65;;;;;;;9.17;95.39;100194.47;5061104;28;20078;-81
2022/11/04 02:15:44;;;;;;;11.07;5.38;;;;;;;9.14;95.37;100200.47;5061446;28;20016;-81
2022/11/04 02:18:31;;;;;;;10.63;5.40;;;;;;;9.10;95.44;100209.03;5060918;28;20074;-81
2022/11/04 02:21:16;;;;;;;8.85;5.00;;;;;;;9.09;95.29;100196.03;5064533;28;20105;-81
2022/11/04 02:24:13;;;;;;;9.82;5.15;;;;;;;9.06;95.49;100199.44;5053874;28;20160;-82
2022/11/04 02:26:55;;;;;;;8.95;4.55;;;;;;;9.02;95.32;100211.50;5081735;28;20283;-82
2022/11/04 02:29:31;;;;;;;10.35;4.78;;;;;;;9.00;95.30;100207.13;5066260;28;20017;-81
2022/11/04 02:31:56;;;;;;;10.48;4.43;;;;;;;8.97;94.92;100210.53;5064632;28;20032;-81
2022/11/04 02:34:39;;;;;;;9.48;4.05;;;;;;;8.95;95.13;100217.44;5066177;28;20110;-81
2022/11/04 02:37:38;;;;;;;9.30;4.68;;;;;;;8.92;95.25;100212.19;5064725;28;20036;-81
2022/11/04 02:40:16;;;;;;;11.95;4.15;;;;;;;8.91;95.32;100214.72;5065624;28;20070;-81
2022/11/04 02:42:57;;;;;;;9.20;3.72;;;;;;;8.88;95.18;100208.63;5065414;28;20025;-80
2022/11/04 02:45:28;;;;;;;9.68;3.72;;;;;;;8.87;95.65;100214.66;5065481;28;20044;-80
2022/11/04 02:48:04;;;;;;;6.90;3.45;;;;;;;8.83;95.68;100215.44;5065100;28;20029;-81
2022/11/04 02:50:43;;;;;;;6.78;3.38;;;;;;;8.82;95.74;100212.81;5057291;28;20374;-81
2022/11/04 02:53:19;;;;;;;7.47;3.70;;;;;;;8.80;96.03;100211.91;5061747;28;20040;-79
2022/11/04 02:55:50;;;;;;;7.60;3.35;;;;;;;8.79;95.42;100223.13;5060319;28;20025;-81
2022/11/04 02:58:22;;;;;;;8.20;3.63;;;;;;;8.76;95.50;100218.78;5065231;28;20275;-81
2022/11/04 03:00:50;;;;;;;7.68;3.22;;;;;;;8.75;95.54;100214.41;5064663;28;20045;-81
2022/11/04 03:03:22;;;;;;;7.72;3.38;;;;;;;8.73;95.54;100210.03;5064945;28;20052;-81
2022/11/04 03:05:51;;;;;;;7.20;3.03;;;;;;;8.70;95.48;100218.63;5074550;28;20024;-81
2022/11/04 03:08:24;;;;;;;6.38;2.95;;;;;;;8.67;95.40;100213.38;5065195;28;20095;-81
2022/11/04 03:10:53;;;;;;;8.45;3.00;;;;;;;8.64;95.68;100221.97;5064727;28;20159;-82
2022/11/04 03:13:25;;;;;;;6.25;3.10;;;;;;;8.62;96.00;100222.81;5064472;28;20036;-81
2022/11/04 03:15:57;;;;;;;9.18;3.17;;;;;;;8.62;95.74;100228.88;5064324;28;20032;-81
2022/11/04 03:18:55;;;;;;;9.15;3.30;;;;;;;8.63;95.64;100241.00;5064934;28;20299;-81
2022/11/04 03:21:23;;;;;;;8.60;3.33;;;;;;;8.63;95.17;100234.91;5063095;28;20028;-82
2022/11/04 03:23:48;;;;;;;8.77;3.50;;;;;;;8.63;95.23;100240.13;5062803;28;20029;-81
2022/11/04 03:26:24;;;;;;;12.20;3.42;;;;;;;8.61;95.07;100244.41;5064425;28;20036;-81
2022/11/04 03:29:25;;;;;;;7.75;3.00;;;;;;;8.62;95.21;100246.19;5064174;28;20017;-81
2022/11/04 03:32:14;;;;;;;7.63;2.63;;;;;;;8.62;95.33;100248.78;5063574;28;20091;-81
2022/11/04 03:34:39;;;;;;;9.25;3.25;;;;;;;8.60;94.69;100247.84;5064481;28;20044;-81
2022/11/04 03:37:05;;;;;;;8.18;2.63;;;;;;;8.55;94.85;100241.69;5063893;28;20024;-81
2022/11/04 03:39:31;;;;;;;8.45;3.20;;;;;;;8.52;94.52;100245.97;5064466;28;20088;-81
2022/11/04 03:41:59;;;;;;;8.20;3.38;;;;;;;8.51;94.57;100248.53;5063471;28;20028;-81
2022/11/04 03:44:25;;;;;;;10.23;2.90;;;;;;;8.50;94.57;100246.75;5064526;28;20033;-81
2022/11/04 03:46:52;;;;;;;7.25;2.78;;;;;;;8.46;94.81;100250.16;5064251;28;20191;-73
2022/11/04 03:49:19;;;;;;;7.55;2.50;;;;;;;8.41;94.80;100242.19;5079143;28;20021;-72
2022/11/04 03:51:45;;;;;;;6.80;2.40;;;;;;;8.40;94.84;100245.66;5063783;28;20087;-72
2022/11/04 03:54:10;;;;;;;6.72;2.60;;;;;;;8.38;94.71;100247.34;5064849;28;20029;-73
2022/11/04 03:56:57;;;;;;;8.90;2.90;;;;;;;8.37;94.87;100250.75;5063672;28;20263;-72
2022/11/04 03:59:41;;;;;;;6.40;2.60;;;;;;;8.35;94.66;100237.75;5063841;28;20114;-73
2022/11/04 04:02:17;;;;;;;7.32;2.70;;;;;;;8.33;94.91;100248.97;5058366;28;20035;-72
2022/11/04 04:04:54;;;;;;;7.38;2.90;;;;;;;8.32;94.67;100242.00;5064077;28;20079;-73
2022/11/04 04:07:38;;;;;;;8.23;2.60;;;;;;;8.32;94.46;100245.47;5062773;28;20080;-73
2022/11/04 04:10:47;;;;;;;6.13;2.72;;;;;;;8.31;94.36;100245.44;5064819;28;20020;-72
2022/11/04 04:13:49;;;;;;;8.20;2.58;;;;;;;8.31;94.39;100248.03;5024956;28;20109;-73
2022/11/04 04:16:26;;;;;;;9.20;2.70;;;;;;;8.28;94.42;100255.75;5059893;28;20033;-73
2022/11/04 04:18:58;;;;;;;7.53;2.58;;;;;;;8.28;94.49;100255.75;5079110;28;20037;-72
2022/11/04 04:21:30;;;;;;;6.38;2.70;;;;;;;8.25;94.22;100253.94;5063681;28;20029;-72
2022/11/04 04:29:29;;;;;;;10.35;3.40;;;;;;;8.22;93.80;100277.25;5052933;28;20055;-73
2022/11/04 04:31:57;;;;;;;8.52;3.08;;;;;;;8.21;93.49;100275.47;5062541;28;20203;-72
2022/11/04 04:34:28;;;;;;;8.80;3.28;;;;;;;8.19;93.16;100272.84;5063224;28;20110;-73
2022/11/04 04:37:16;;;;;;;5.80;2.80;;;;;;;8.21;93.00;100279.81;5062455;28;20063;-73
2022/11/04 04:45:39;;;;;;;7.53;2.65;;;;;;;8.10;92.15;100283.03;5062716;28;20086;-73
2022/11/04 04:48:08;;;;;;;6.72;2.80;;;;;;;8.05;92.24;100283.75;5063000;28;20092;-73
2022/11/04 04:50:37;;;;;;;8.68;3.10;;;;;;;8.02;92.41;100284.53;5063452;28;20028;-73
2022/11/04 04:53:05;;;;;;;7.97;2.90;;;;;;;7.99;92.52;100280.19;5061223;28;20074;-73
2022/11/04 04:55:31;;;;;;;6.53;3.00;;;;;;;7.97;91.80;100283.56;5078350;28;20041;-73
2022/11/04 04:57:57;;;;;;;8.80;3.00;;;;;;;7.90;91.94;100279.94;5062223;28;20032;-73
2022/11/04 05:00:23;;;;;;;7.95;2.70;;;;;;;7.85;91.57;100281.53;5062862;28;20028;-73
2022/11/04 05:02:48;;;;;;;7.13;2.55;;;;;;;7.80;91.50;100286.59;5077632;28;20040;-73
2022/11/04 05:05:14;;;;;;;8.18;3.08;;;;;;;7.75;91.36;100293.38;5061403;28;20036;-73
2022/11/04 05:07:40;;;;;;;8.30;3.00;;;;;;;7.71;91.43;100293.28;5062823;28;20052;-73
2022/11/04 05:10:07;;;;;;;9.63;2.95;;;;;;;7.70;91.59;100292.38;5063152;28;20013;-73
2022/11/04 05:15:21;;;;;;;6.38;3.30;;;;;;;7.62;91.37;100301.69;5055405;28;20346;-73
2022/11/04 05:17:46;;;;;;;7.10;3.60;;;;;;;7.58;91.64;100308.50;5062456;28;20028;-73
2022/11/04 05:20:12;;;;;;;7.18;3.75;;;;;;;7.54;91.74;100300.59;5062606;28;20070;-73
2022/11/04 05:22:38;;;;;;;11.85;3.83;;;;;;;7.49;91.53;100303.94;5062773;28;20074;-73
2022/11/04 05:25:04;;;;;;;8.43;4.10;;;;;;;7.46;91.74;100310.75;5062266;28;20029;-73
2022/11/04 05:27:29;;;;;;;9.95;4.38;;;;;;;7.44;92.31;100305.53;5060569;28;20036;-73
2022/11/04 05:29:54;;;;;;;11.30;4.65;;;;;;;7.44;92.55;100318.50;5062380;28;20195;-73
2022/11/04 05:32:19;;;;;;;8.70;4.40;;;;;;;7.42;92.84;100322.75;5061594;28;20029;-73
2022/11/04 05:34:46;;;;;;;11.00;4.30;;;;;;;7.42;93.08;100314.09;5062261;28;20044;-73
2022/11/04 05:37:11;;;;;;;6.47;3.05;;;;;;;7.44;93.09;100321.09;5061372;28;20029;-73
2022/11/04 05:39:37;;;;;;;6.80;2.92;;;;;;;7.44;93.16;100322.78;5077943;28;20036;-73
2022/11/04 05:42:02;;;;;;;5.35;2.92;;;;;;;7.42;93.10;100329.66;5077813;28;20040;-73
2022/11/04 05:44:28;;;;;;;7.38;3.40;;;;;;;7.41;93.58;100333.06;5062759;28;20099;-73
2022/11/04 05:46:53;;;;;;;7.60;3.55;;;;;;;7.40;93.49;100329.63;5094452;28;20191;-73
2022/11/04 05:49:19;;;;;;;7.45;3.80;;;;;;;7.40;93.82;100334.81;5061959;28;20060;-74
2022/11/04 05:51:44;;;;;;;8.20;3.72;;;;;;;7.41;94.13;100339.13;5062135;28;20286;-73
2022/11/04 05:54:09;;;;;;;7.00;3.50;;;;;;;7.45;94.28;100337.50;5061996;28;20127;-73
2022/11/04 05:56:35;;;;;;;9.45;4.07;;;;;;;7.46;93.98;100334.09;5061292;28;20028;-73
2022/11/04 05:59:00;;;;;;;8.07;3.70;;;;;;;7.46;94.50;100334.97;5061047;28;20276;-73
2022/11/04 06:01:30;;;;;;;12.85;3.97;;;;;;;7.51;94.63;100342.00;5062041;28;20090;-73
2022/11/04 06:03:57;;;;;;;9.15;4.25;;;;;;;7.53;94.55;100348.09;5062005;28;20037;-73
2022/11/04 06:06:24;;;;;;;8.80;4.00;;;;;;;7.52;94.57;100347.22;5062274;28;20027;-73
2022/11/04 06:08:50;;;;;;;9.93;3.97;;;;;;;7.52;94.31;100352.41;5061386;28;20041;-73
2022/11/04 06:11:17;;;;;;;6.35;3.60;;;;;;;7.52;94.32;100352.41;5062248;28;20025;-73
2022/11/04 06:13:42;;;;;;;8.68;3.60;;;;;;;7.53;94.63;100351.56;5062352;28;20060;-73
2022/11/04 06:16:07;;;;;;;8.10;3.65;;;;;;;7.55;94.57;100349.88;5062405;28;20279;-73
2022/11/04 06:18:33;;;;;;;8.75;4.10;;;;;;;7.55;95.04;100355.06;5060412;28;20116;-73
2022/11/04 06:21:08;;;;;;;9.18;4.13;;;;;;;7.54;95.27;100357.63;5061118;28;20032;-73
2022/11/04 06:23:34;;;;;;;8.30;4.32;;;;;;;7.54;95.38;100357.63;5061343;28;20040;-73
2022/11/04 06:25:59;;;;;;;11.57;4.22;;;;;;;7.55;95.18;100360.25;5061491;28;20029;-73
2022/11/04 06:28:24;;;;;;;12.80;4.32;;;;;;;7.54;95.26;100362.81;5061642;28;20033;-73
2022/11/04 06:30:50;;;;;;;7.45;4.03;;;;;;;7.53;94.98;100361.03;5058975;28;20268;-73
2022/11/04 06:33:15;;;;;;;7.57;4.20;;;;;;;7.52;94.58;100372.25;5061475;28;20040;-73
2022/11/04 06:35:40;;;;;;;9.07;3.92;;;;;;;7.49;94.79;100371.34;5060684;28;20069;-73
2022/11/04 06:38:05;;;;;;;8.63;4.10;;;;;;;7.47;94.83;100367.84;5060344;28;20029;-73
2022/11/04 06:40:31;;;;;;;10.30;4.55;;;;;;;7.44;94.18;100367.75;5061371;28;20025;-73
2022/11/04 06:42:56;;;;;;;9.02;4.00;;;;;;;7.40;93.46;100365.91;5061805;28;20270;-73
2022/11/04 06:45:21;;;;;;;11.30;3.95;;;;;;;7.38;93.85;100370.16;5076406;28;20099;-73
2022/11/04 06:47:47;;;;;;;8.63;4.60;;;;;;;7.36;93.82;100378.69;5060830;28;20052;-73
2022/11/04 06:50:12;;;;;;;12.60;4.70;;;;;;;7.32;93.51;100382.94;5061329;28;20171;-73
2022/11/04 06:52:37;;;;;;;9.15;4.35;;;;;;;7.32;93.92;100388.13;5076007;28;20032;-73
2022/11/04 06:55:03;;;;;;;10.32;4.40;;;;;;;7.33;94.19;100395.06;5058867;28;20041;-73
2022/11/04 06:57:28;;;;;;;9.00;4.30;;;;;;;7.32;94.25;100394.16;5061043;28;20153;-73
2022/11/04 06:59:53;;;;;;;10.23;4.22;;;;;;;7.32;94.05;100406.25;5061182;28;20358;-73
2022/11/04 07:02:19;;;;;;;9.07;4.30;;;;;;;7.31;94.47;100405.38;5058701;28;20031;-73
2022/11/04 07:04:44;;;;;;;9.77;4.25;;;;;;;7.31;94.54;100417.44;5058758;28;20021;-73
2022/11/04 07:07:09;;;;;;;9.43;3.90;;;;;;;7.29;94.10;100408.75;5061688;28;20032;-72
2022/11/04 07:09:35;;;;;;;8.80;4.00;;;;;;;7.27;94.43;100420.78;5080206;28;20031;-73
2022/11/04 07:12:00;;;;;;;6.75;3.63;;;;;;;7.28;94.62;100418.22;5063340;28;20267;-72
2022/11/04 07:14:26;;;;;;;7.72;3.83;;;;;;;7.31;94.91;100420.03;5064486;28;20041;-72
2022/11/04 07:16:51;;;;;;;8.80;4.13;;;;;;;7.33;95.28;100418.38;5078225;28;20037;-73
2022/11/04 07:19:16;;;;;;;8.02;3.55;;;;;;;7.34;95.44;100427.91;5063992;28;20017;-73
2022/11/04 07:21:42;;;;;;;5.20;3.20;;;;;;;7.39;95.56;100426.34;5063364;28;20260;-73
2022/11/04 07:24:07;;;;;;;7.38;3.30;;;;;;;7.41;95.67;100435.03;5064787;28;20074;-73
2022/11/04 07:26:32;;;;;;;9.38;3.28;;;;;;;7.43;95.91;100429.88;5064450;28;20029;-73
2022/11/04 07:28:59;;;;;;;8.45;3.45;;;;;;;7.45;96.38;100429.09;5064714;28;20067;-73
2022/11/04 07:31:25;;;;;;;7.25;3.30;;;;;;;7.48;96.55;100429.19;5078400;28;20017;-73
2022/11/04 07:33:50;;;;;;;7.90;3.58;;;;;;;7.52;97.02;100427.59;5063716;28;20047;-73
2022/11/04 07:36:16;;;;;;;7.65;3.58;;;;;;;7.56;97.09;100429.44;5079742;28;20275;-73
2022/11/04 07:38:42;;;;;;;8.48;3.72;;;;;;;7.62;97.13;100427.00;5079431;28;20025;-73
2022/11/04 07:41:07;;;;;;;6.40;3.25;;;;;;;7.68;97.46;100423.72;5064685;28;20031;-73
2022/11/04 07:43:33;;;;;;;5.85;3.72;;;;;;;7.73;98.14;100434.22;5064434;28;20327;-73
2022/11/04 07:46:03;;;;;;;8.93;3.90;;;;;;;7.77;98.03;100439.53;5064377;28;20048;-73
2022/11/04 07:48:28;;;;;;;9.00;3.80;;;;;;;7.82;98.12;100447.44;5064331;28;20112;-83
2022/11/04 07:50:56;;;;;;;10.45;3.95;;;;;;;7.83;98.39;100439.72;5064397;28;20025;-83
2022/11/04 07:53:21;;;;;;;10.00;4.70;;;;;;;7.88;97.98;100447.63;5062605;28;20043;-83
2022/11/04 07:55:49;;;;;;;9.52;3.92;;;;;;;7.92;98.13;100449.47;5064879;28;20045;-83
2022/11/04 07:58:15;;;;;;;14.13;4.57;;;;;;;7.97;98.18;100452.19;5063949;28;20088;-83
2022/11/04 08:00:40;;;;;;;8.65;4.13;;;;;;;8.02;98.26;100442.81;5064298;28;20049;-83
2022/11/04 08:03:06;;;;;;;11.48;4.28;;;;;;;8.05;98.32;100445.47;5079368;28;20024;-82
2022/11/04 08:05:31;;;;;;;13.57;4.97;;;;;;;8.10;98.22;100443.03;5063409;28;20088;-81
2022/11/04 08:07:56;;;;;;;9.25;4.72;;;;;;;8.16;98.70;100448.38;5064307;28;20036;-83
2022/11/04 08:10:22;;;;;;;8.18;4.70;;;;;;;8.21;98.69;100462.34;5064886;28;20025;-83
2022/11/04 08:12:47;;;;;;;8.57;4.60;;;;;;;8.27;98.86;100459.94;5062617;28;20021;-81
2022/11/04 08:15:12;;;;;;;9.82;4.82;;;;;;;8.33;98.87;100467.00;5063156;28;20043;-81
2022/11/04 08:17:38;;;;;;;10.85;4.60;;;;;;;8.39;98.66;100461.97;5062415;28;20042;-72
2022/11/04 08:20:04;;;;;;;12.00;5.00;;;;;;;8.47;98.91;100476.06;5063058;28;20310;-72
2022/11/04 08:22:30;;;;;;;9.52;4.63;;;;;;;8.51;98.70;100471.81;5063637;28;20025;-72
2022/11/04 08:24:55;;;;;;;10.90;4.65;;;;;;;8.57;98.71;100477.16;5063540;28;20029;-72
2022/11/04 08:27:21;;;;;;;10.75;4.68;;;;;;;8.64;98.90;100480.81;5062854;28;20071;-73
2022/11/04 08:29:47;;;;;;;12.50;5.25;;;;;;;8.69;99.65;100477.50;5063515;28;20116;-72
2022/11/04 08:32:12;;;;;;;11.23;5.07;;;;;;;8.76;98.98;100478.53;5062553;28;20276;-72
2022/11/04 08:34:38;;;;;;;13.93;5.28;;;;;;;8.84;99.33;100487.38;5062845;28;20050;-73
2022/11/04 08:37:04;;;;;;;14.55;5.82;;;;;;;8.92;99.52;100491.88;5055808;28;20032;-73
2022/11/04 08:39:29;;;;;;;14.43;5.22;;;;;;;8.99;99.20;100493.78;5062468;28;20175;-73
2022/11/04 08:41:55;;;;;;;16.58;5.72;;;;;;;9.04;99.01;100497.41;5063587;28;20020;-72
2022/11/04 08:44:21;;;;;;;14.27;5.97;;;;;;;9.11;99.08;100503.59;5078805;28;20043;-73
2022/11/04 08:46:46;;;;;;;13.88;6.75;;;;;;;9.16;98.51;100500.28;5062088;28;20075;-73
2022/11/04 08:49:12;;;;;;;15.70;6.40;;;;;;;9.22;98.35;100500.44;5076884;28;20048;-73
2022/11/04 08:51:40;;;;;;;12.25;6.40;;;;;;;9.28;98.67;100498.81;5063189;28;20029;-72
2022/11/04 08:54:05;;;;;;;12.60;6.50;;;;;;;9.33;98.78;100492.00;5061532;28;20276;-72
2022/11/04 08:56:33;;;;;;;14.68;6.53;;;;;;;9.37;98.16;100506.81;5063694;28;20094;-81
2022/11/04 08:59:01;;;;;;;14.13;7.25;;;;;;;9.40;98.51;100504.31;5062873;28;20110;-81
2022/11/04 09:01:28;;;;;;;16.23;7.32;;;;;;;9.43;98.11;100512.19;5062280;28;20051;-82
2022/11/04 09:03:54;;;;;;;14.45;6.97;;;;;;;9.41;97.41;100513.84;5060534;28;20027;-80
2022/11/04 09:06:25;;;;;;;17.60;7.90;;;;;;;9.42;97.36;100514.75;5060571;28;20037;-77
2022/11/04 09:08:54;;;;;;;16.65;7.43;;;;;;;9.43;96.89;100532.97;5061385;28;20092;-77
2022/11/04 09:11:19;;;;;;;16.27;7.53;;;;;;;9.44;96.53;100539.03;5062124;28;20078;-77
2022/11/04 09:13:45;;;;;;;15.77;7.47;;;;;;;9.45;96.79;100539.09;5061944;28;20033;-77
2022/11/04 09:16:12;;;;;;;17.23;7.90;;;;;;;9.47;96.65;100541.72;5076858;28;20021;-76
2022/11/04 09:18:37;;;;;;;14.75;7.22;;;;;;;9.48;96.40;100543.47;5060341;28;20021;-77
2022/11/04 09:21:05;;;;;;;15.07;7.32;;;;;;;9.51;96.72;100546.16;5062869;28;20020;-77
2022/11/04 09:23:30;;;;;;;15.05;6.88;;;;;;;9.53;96.15;100544.44;5061019;28;20049;-77
2022/11/04 09:25:57;;;;;;;18.27;7.55;;;;;;;9.54;96.17;100544.50;5061575;28;20082;-77
2022/11/04 09:28:23;;;;;;;19.58;8.02;;;;;;;9.58;95.90;100550.66;5062198;28;20032;-77
2022/11/04 09:30:49;;;;;;;17.23;7.38;;;;;;;9.62;96.80;100555.09;5061930;28;20063;-79
2022/11/04 09:33:15;;;;;;;16.52;7.80;;;;;;;9.66;96.86;100558.63;5061527;28;20025;-79
2022/11/04 09:35:40;;;;;;;17.25;7.63;;;;;;;9.67;96.04;100557.78;5062185;28;20325;-79
2022/11/04 09:38:05;;;;;;;14.30;7.45;;;;;;;9.69;95.25;100570.00;5060875;28;20044;-79
2022/11/04 09:40:34;;;;;;;17.80;8.07;;;;;;;9.73;95.43;100570.91;5061435;28;20183;-79
2022/11/04 09:43:31;;;;;;;20.77;8.43;;;;;;;9.77;95.91;100572.75;5060833;28;20032;-79
2022/11/04 09:45:57;;;;;;;17.55;8.40;;;;;;;9.80;96.03;100578.03;5061881;28;20100;-79
2022/11/04 09:48:29;;;;;;;17.98;8.35;;;;;;;9.84;96.02;100585.06;5060468;28;20029;-79
2022/11/04 09:50:57;;;;;;;21.98;8.13;;;;;;;9.89;96.00;100583.44;5077971;28;20067;-80
2022/11/04 09:53:34;;;;;;;20.67;7.95;;;;;;;9.92;94.96;100588.72;5058471;28;20028;-80
2022/11/04 09:56:05;;;;;;;15.50;7.30;;;;;;;9.96;95.42;100589.66;5059342;28;20291;-80
2022/11/04 09:58:35;;;;;;;19.58;7.72;;;;;;;10.00;95.54;100590.59;5058733;28;20210;-71
2022/11/04 10:01:18;;;;;;;17.10;7.40;;;;;;;10.03;95.28;100591.53;5061437;28;20072;-71
2022/11/04 10:04:07;;;;;;;16.08;7.10;;;;;;;10.08;94.65;100592.53;5061374;28;20481;-71
2022/11/04 10:06:57;;;;;;;23.05;7.32;;;;;;;10.16;94.70;100607.44;5061701;28;20044;-71
2022/11/04 10:09:38;;;;;;;15.48;7.20;;;;;;;10.19;94.80;100599.69;5059724;28;20290;-71
2022/11/04 10:12:48;;;;;;;14.98;7.40;;;;;;;10.23;94.79;100609.31;5059938;28;20051;-71
2022/11/04 10:15:37;;;;;;;15.88;7.40;;;;;;;10.30;95.26;100610.31;5053310;28;20036;-71
2022/11/04 10:18:14;;;;;;;17.58;8.25;;;;;;;10.34;95.77;100607.88;5060714;28;20037;-71
2022/11/04 10:20:54;;;;;;;15.25;8.50;;;;;;;10.42;95.62;100605.41;5078302;28;20037;-71
2022/11/04 10:23:29;;;;;;;15.90;7.85;;;;;;;10.47;95.28;100606.38;5076652;28;20195;-71
2022/11/04 10:26:00;;;;;;;18.73;7.85;;;;;;;10.54;95.86;100609.97;5061904;28;20033;-71
2022/11/04 10:28:35;;;;;;;19.25;8.05;;;;;;;10.60;95.31;100616.19;5061205;28;20021;-80
2022/11/04 10:31:02;;;;;;;17.85;8.00;;;;;;;10.66;95.58;100609.34;5058213;28;20032;-79
2022/11/04 10:33:31;;;;;;;17.95;8.70;;;;;;;10.70;94.45;100613.75;5060250;28;20029;-80
2022/11/04 10:36:00;;;;;;;16.52;7.78;;;;;;;10.77;95.53;100626.06;5059699;28;20040;-80
2022/11/04 10:38:36;;;;;;;23.48;8.93;;;;;;;10.84;94.06;100627.06;5061356;28;20017;-80
2022/11/04 10:41:16;;;;;;;14.68;7.95;;;;;;;10.90;95.18;100635.88;5060026;28;20084;-80
2022/11/04 10:43:42;;;;;;;21.92;9.68;;;;;;;10.95;91.78;100635.97;5070189;28;20230;-80
2022/11/04 10:46:25;;;;;;;20.23;9.63;;;;;;;10.99;92.22;100644.72;5064856;28;20283;-80
2022/11/04 10:48:59;;;;;;;21.48;9.13;;;;;;;11.04;94.06;100649.16;5057688;28;20537;-80
2022/11/04 10:51:24;;;;;;;18.13;10.07;;;;;;;11.09;92.41;100651.84;5060822;28;20043;-80
2022/11/04 10:53:56;;;;;;;19.63;9.70;;;;;;;11.13;91.46;100656.28;5064639;28;20272;-80
2022/11/04 10:56:36;;;;;;;22.45;10.25;;;;;;;11.19;91.72;100647.69;5062391;28;20029;-80
2022/11/04 10:59:20;;;;;;;20.65;10.23;;;;;;;11.26;90.46;100652.16;5062056;28;20198;-80
2022/11/04 11:02:00;;;;;;;20.80;10.23;;;;;;;11.30;89.97;100647.03;5062091;28;20029;-81
2022/11/04 11:04:25;;;;;;;;;;;;;;;11.40;91.41;100637.63;5061062;28;20040;-80
2022/11/04 11:06:53;;;;;;;20.77;9.87;;;;;;;11.43;88.92;100636.81;5062536;28;19931;-80
2022/11/04 11:09:27;;;;;;;26.02;11.23;;;;;;;11.53;90.84;100636.09;5063081;28;20287;-81
2022/11/04 11:11:53;;;;;;;20.05;10.20;;;;;;;11.66;89.13;100645.88;5078284;28;20041;-80
2022/11/04 11:14:28;;;;;;;22.27;10.68;;;;;;;11.83;90.85;100647.88;5063648;28;20029;-80
2022/11/04 11:16:54;;;;;;;25.25;11.07;;;;;;;11.97;89.09;100656.81;5063472;28;20378;-80
2022/11/04 11:19:23;;;;;;;25.77;11.57;;;;;;;12.07;87.63;100651.75;5064590;28;20084;-80
2022/11/04 11:21:53;;;;;;;19.05;9.93;;;;;;;12.18;87.05;100650.16;5063706;28;20044;-80
2022/11/04 11:24:29;;;;;;;23.88;10.38;;;;;;;12.29;88.17;100659.00;5060956;28;20045;-80
2022/11/04 11:27:02;;;;;;;25.73;10.68;;;;;;;12.39;86.29;100659.16;5058090;28;20036;-80
2022/11/04 11:29:30;;;;;;;23.98;10.40;;;;;;;12.56;87.35;100660.25;5060680;28;20291;-80
2022/11/04 11:31:58;;;;;;;25.93;11.40;;;;;;;12.73;88.10;100662.16;5064047;28;20048;-81
2022/11/04 11:34:27;;;;;;;25.05;12.20;;;;;;;12.88;86.96;100651.88;5063126;28;20112;-79
2022/11/04 11:36:54;;;;;;;23.00;12.13;;;;;;;13.01;85.61;100648.53;5064151;28;20035;-80
2022/11/04 11:39:24;;;;;;;23.15;11.20;;;;;;;13.03;85.05;100648.56;5064046;28;20021;-80
2022/11/04 11:41:55;;;;;;;;;;;;;;;13.05;87.20;100652.94;5077629;28;20272;-80
2022/11/04 11:44:43;;;;;;;24.55;11.70;;;;;;;12.88;83.77;100647.53;5062115;28;19917;-80
2022/11/04 11:47:28;;;;;;;23.60;11.85;;;;;;;12.73;84.23;100654.31;5060860;28;20024;-81
2022/11/04 11:50:11;;;;;;;22.88;12.05;;;;;;;12.63;85.09;100653.31;5052312;28;20074;-80
2022/11/04 11:52:38;;;;;;;24.13;12.25;;;;;;;12.59;85.06;100652.44;5061127;28;20336;-80
2022/11/04 11:55:22;;;;;;;21.38;11.20;;;;;;;12.60;84.95;100653.28;5061172;28;20071;-80
2022/11/04 11:58:02;;;;;;;23.42;11.95;;;;;;;12.58;85.23;100661.13;5068931;28;20045;-80
2022/11/04 12:00:31;;;;;;;;;;;;;;;12.66;86.77;100663.84;5061130;28;20168;-80
2022/11/04 12:03:12;;;;;;;22.25;12.27;;;;;;;12.63;85.02;100672.53;5057774;28;20190;-80
2022/11/04 12:05:50;;;;;;;23.77;13.07;;;;;;;12.62;84.11;100673.38;5060328;28;20025;-80
2022/11/04 12:08:28;;;;;;;24.17;13.32;;;;;;;12.60;85.24;100680.34;5062007;28;20092;-72
2022/11/04 12:11:05;;;;;;;25.90;13.75;;;;;;;12.56;85.24;100683.75;5061622;28;20029;-71
2022/11/04 12:13:40;;;;;;;24.90;14.93;;;;;;;12.61;85.69;100684.69;5078123;28;20048;-71